sensor_id;sensor_type;location;lat;lon;timestamp;P1;durP1;ratioP1;P2;durP2;ratioP2
7338;SDS011;33747;49.524;8.390;2023-12-20T00:01:01;4.65;;;3.60;;
7338;SDS011;33747;49.524;8.390;2023-12-20T00:03:27;9.05;;;4.68;;
7338;SDS011;33747;49.524;8.390;2023-12-20T00:05:52;4.93;;;4.45;;
7338;SDS011;33747;49.524;8.390;2023-12-20T00:08:18;7.07;;;4.63;;
7338;SDS011;33747;49.524;8.390;2023-12-20T00:10:43;4.95;;;4.03;;
7338;SDS011;33747;49.524;8.390;2023-12-20T00:13:09;5.00;;;4.38;;
7338;SDS011;33747;49.524;8.390;2023-12-20T00:15:34;5.38;;;4.82;;
7338;SDS011;33747;49.524;8.390;2023-12-20T00:18:00;5.43;;;4.28;;
7338;SDS011;33747;49.524;8.390;2023-12-20T00:20:26;5.60;;;4.35;;
7338;SDS011;33747;49.524;8.390;2023-12-20T00:22:51;5.63;;;3.40;;
7338;SDS011;33747;49.524;8.390;2023-12-20T00:25:16;3.97;;;3.53;;
7338;SDS011;33747;49.524;8.390;2023-12-20T00:27:42;5.00;;;3.75;;
7338;SDS011;33747;49.524;8.390;2023-12-20T00:30:08;5.15;;;4.00;;
7338;SDS011;33747;49.524;8.390;2023-12-20T00:32:34;4.18;;;3.47;;
7338;SDS011;33747;49.524;8.390;2023-12-20T00:35:00;5.32;;;3.80;;
7338;SDS011;33747;49.524;8.390;2023-12-20T00:37:26;3.35;;;2.65;;
7338;SDS011;33747;49.524;8.390;2023-12-20T00:39:51;2.42;;;2.22;;
7338;SDS011;33747;49.524;8.390;2023-12-20T00:42:16;1.50;;;1.42;;
7338;SDS011;33747;49.524;8.390;2023-12-20T00:44:42;2.33;;;1.73;;
7338;SDS011;33747;49.524;8.390;2023-12-20T00:47:07;1.35;;;1.25;;
7338;SDS011;33747;49.524;8.390;2023-12-20T00:49:33;1.45;;;1.27;;
7338;SDS011;33747;49.524;8.390;2023-12-20T00:51:58;1.30;;;1.20;;
7338;SDS011;33747;49.524;8.390;2023-12-20T00:54:23;2.03;;;1.50;;
7338;SDS011;33747;49.524;8.390;2023-12-20T00:56:49;1.73;;;1.63;;
7338;SDS011;33747;49.524;8.390;2023-12-20T00:59:14;1.50;;;1.40;;
7338;SDS011;33747;49.524;8.390;2023-12-20T01:01:41;2.00;;;1.63;;
7338;SDS011;33747;49.524;8.390;2023-12-20T01:04:07;1.15;;;1.15;;
7338;SDS011;33747;49.524;8.390;2023-12-20T01:06:32;1.63;;;1.52;;
7338;SDS011;33747;49.524;8.390;2023-12-20T01:08:57;1.13;;;1.10;;
7338;SDS011;33747;49.524;8.390;2023-12-20T01:11:23;0.93;;;0.93;;
7338;SDS011;33747;49.524;8.390;2023-12-20T01:13:48;1.25;;;1.15;;
7338;SDS011;33747;49.524;8.390;2023-12-20T01:16:14;1.73;;;0.70;;
7338;SDS011;33747;49.524;8.390;2023-12-20T01:18:39;1.10;;;0.70;;
7338;SDS011;33747;49.524;8.390;2023-12-20T01:21:04;16.08;;;1.33;;
7338;SDS011;33747;49.524;8.390;2023-12-20T01:23:30;1.00;;;1.00;;
7338;SDS011;33747;49.524;8.390;2023-12-20T01:25:55;1.77;;;0.75;;
7338;SDS011;33747;49.524;8.390;2023-12-20T01:28:21;0.90;;;0.65;;
7338;SDS011;33747;49.524;8.390;2023-12-20T01:30:47;0.85;;;0.82;;
7338;SDS011;33747;49.524;8.390;2023-12-20T01:33:12;0.80;;;0.80;;
7338;SDS011;33747;49.524;8.390;2023-12-20T01:35:38;0.75;;;0.75;;
7338;SDS011;33747;49.524;8.390;2023-12-20T01:38:03;1.33;;;0.90;;
7338;SDS011;33747;49.524;8.390;2023-12-20T01:40:28;2.95;;;0.75;;
7338;SDS011;33747;49.524;8.390;2023-12-20T01:42:57;0.93;;;0.90;;
7338;SDS011;33747;49.524;8.390;2023-12-20T01:45:24;1.38;;;1.00;;
7338;SDS011;33747;49.524;8.390;2023-12-20T01:47:49;0.98;;;0.90;;
7338;SDS011;33747;49.524;8.390;2023-12-20T01:50:15;0.93;;;0.93;;
7338;SDS011;33747;49.524;8.390;2023-12-20T01:52:41;0.63;;;0.60;;
7338;SDS011;33747;49.524;8.390;2023-12-20T01:55:07;0.60;;;0.60;;
7338;SDS011;33747;49.524;8.390;2023-12-20T01:57:38;0.80;;;0.80;;
7338;SDS011;33747;49.524;8.390;2023-12-20T02:00:04;1.75;;;0.80;;
7338;SDS011;33747;49.524;8.390;2023-12-20T02:02:30;2.47;;;0.80;;
7338;SDS011;33747;49.524;8.390;2023-12-20T02:04:56;0.75;;;0.75;;
7338;SDS011;33747;49.524;8.390;2023-12-20T02:07:21;0.68;;;0.68;;
7338;SDS011;33747;49.524;8.390;2023-12-20T02:09:47;0.82;;;0.82;;
7338;SDS011;33747;49.524;8.390;2023-12-20T02:12:12;1.92;;;0.90;;
7338;SDS011;33747;49.524;8.390;2023-12-20T02:14:38;1.10;;;0.63;;
7338;SDS011;33747;49.524;8.390;2023-12-20T02:17:04;0.80;;;0.80;;
7338;SDS011;33747;49.524;8.390;2023-12-20T02:19:29;0.95;;;0.65;;
7338;SDS011;33747;49.524;8.390;2023-12-20T02:22:08;2.78;;;0.90;;
7338;SDS011;33747;49.524;8.390;2023-12-20T02:24:36;1.50;;;0.90;;
7338;SDS011;33747;49.524;8.390;2023-12-20T02:27:01;1.55;;;1.00;;
7338;SDS011;33747;49.524;8.390;2023-12-20T02:29:27;0.60;;;0.60;;
7338;SDS011;33747;49.524;8.390;2023-12-20T02:31:52;2.25;;;0.90;;
7338;SDS011;33747;49.524;8.390;2023-12-20T02:34:18;0.88;;;0.88;;
7338;SDS011;33747;49.524;8.390;2023-12-20T02:36:43;1.00;;;0.82;;
7338;SDS011;33747;49.524;8.390;2023-12-20T02:39:09;1.50;;;0.95;;
7338;SDS011;33747;49.524;8.390;2023-12-20T02:41:34;0.70;;;0.70;;
7338;SDS011;33747;49.524;8.390;2023-12-20T02:44:01;1.13;;;0.95;;
7338;SDS011;33747;49.524;8.390;2023-12-20T02:46:27;0.90;;;0.90;;
7338;SDS011;33747;49.524;8.390;2023-12-20T02:48:52;0.80;;;0.80;;
7338;SDS011;33747;49.524;8.390;2023-12-20T02:51:18;0.80;;;0.80;;
7338;SDS011;33747;49.524;8.390;2023-12-20T02:53:43;3.85;;;0.80;;
7338;SDS011;33747;49.524;8.390;2023-12-20T02:56:08;1.55;;;0.70;;
7338;SDS011;33747;49.524;8.390;2023-12-20T02:58:34;0.70;;;0.70;;
7338;SDS011;33747;49.524;8.390;2023-12-20T03:00:59;0.75;;;0.75;;
7338;SDS011;33747;49.524;8.390;2023-12-20T03:03:24;1.25;;;0.90;;
7338;SDS011;33747;49.524;8.390;2023-12-20T03:05:50;1.10;;;0.98;;
7338;SDS011;33747;49.524;8.390;2023-12-20T03:08:15;0.95;;;0.65;;
7338;SDS011;33747;49.524;8.390;2023-12-20T03:10:40;0.75;;;0.75;;
7338;SDS011;33747;49.524;8.390;2023-12-20T03:13:06;1.13;;;0.90;;
7338;SDS011;33747;49.524;8.390;2023-12-20T03:15:31;0.68;;;0.68;;
7338;SDS011;33747;49.524;8.390;2023-12-20T03:17:57;0.80;;;0.80;;
7338;SDS011;33747;49.524;8.390;2023-12-20T03:20:24;0.73;;;0.73;;
7338;SDS011;33747;49.524;8.390;2023-12-20T03:22:50;0.70;;;0.70;;
7338;SDS011;33747;49.524;8.390;2023-12-20T03:25:16;0.80;;;0.80;;
7338;SDS011;33747;49.524;8.390;2023-12-20T03:27:41;2.67;;;0.70;;
7338;SDS011;33747;49.524;8.390;2023-12-20T03:30:07;0.77;;;0.77;;
7338;SDS011;33747;49.524;8.390;2023-12-20T03:32:32;0.80;;;0.80;;
7338;SDS011;33747;49.524;8.390;2023-12-20T03:34:58;0.90;;;0.90;;
7338;SDS011;33747;49.524;8.390;2023-12-20T03:37:23;1.17;;;1.08;;
7338;SDS011;33747;49.524;8.390;2023-12-20T03:39:48;1.08;;;1.08;;
7338;SDS011;33747;49.524;8.390;2023-12-20T03:42:14;0.80;;;0.80;;
7338;SDS011;33747;49.524;8.390;2023-12-20T03:44:39;0.70;;;0.70;;
7338;SDS011;33747;49.524;8.390;2023-12-20T03:47:07;0.93;;;0.90;;
7338;SDS011;33747;49.524;8.390;2023-12-20T03:49:33;0.93;;;0.93;;
7338;SDS011;33747;49.524;8.390;2023-12-20T03:51:58;1.02;;;0.90;;
7338;SDS011;33747;49.524;8.390;2023-12-20T03:54:24;1.00;;;1.00;;
7338;SDS011;33747;49.524;8.390;2023-12-20T03:56:49;0.90;;;0.90;;
7338;SDS011;33747;49.524;8.390;2023-12-20T03:59:15;1.98;;;0.80;;
7338;SDS011;33747;49.524;8.390;2023-12-20T04:01:44;0.90;;;0.90;;
7338;SDS011;33747;49.524;8.390;2023-12-20T04:04:10;1.20;;;1.10;;
7338;SDS011;33747;49.524;8.390;2023-12-20T04:06:35;1.48;;;1.08;;
7338;SDS011;33747;49.524;8.390;2023-12-20T04:09:01;5.35;;;1.10;;
7338;SDS011;33747;49.524;8.390;2023-12-20T04:11:26;1.10;;;1.10;;
7338;SDS011;33747;49.524;8.390;2023-12-20T04:13:52;1.15;;;1.15;;
7338;SDS011;33747;49.524;8.390;2023-12-20T04:16:17;1.20;;;1.10;;
7338;SDS011;33747;49.524;8.390;2023-12-20T04:18:42;1.50;;;1.40;;
7338;SDS011;33747;49.524;8.390;2023-12-20T04:21:08;3.22;;;1.38;;
7338;SDS011;33747;49.524;8.390;2023-12-20T04:23:33;1.58;;;1.10;;
7338;SDS011;33747;49.524;8.390;2023-12-20T04:26:00;1.38;;;1.30;;
7338;SDS011;33747;49.524;8.390;2023-12-20T04:28:25;1.48;;;1.38;;
7338;SDS011;33747;49.524;8.390;2023-12-20T04:30:50;1.90;;;1.70;;
7338;SDS011;33747;49.524;8.390;2023-12-20T04:33:16;2.45;;;1.35;;
7338;SDS011;33747;49.524;8.390;2023-12-20T04:35:41;1.35;;;1.25;;
7338;SDS011;33747;49.524;8.390;2023-12-20T04:38:07;1.58;;;1.48;;
7338;SDS011;33747;49.524;8.390;2023-12-20T04:40:33;2.05;;;1.50;;
7338;SDS011;33747;49.524;8.390;2023-12-20T04:42:59;3.13;;;1.55;;
7338;SDS011;33747;49.524;8.390;2023-12-20T04:45:24;1.77;;;1.67;;
7338;SDS011;33747;49.524;8.390;2023-12-20T04:47:50;1.73;;;1.63;;
7338;SDS011;33747;49.524;8.390;2023-12-20T04:50:15;2.20;;;2.00;;
7338;SDS011;33747;49.524;8.390;2023-12-20T04:52:41;1.58;;;1.48;;
7338;SDS011;33747;49.524;8.390;2023-12-20T04:55:07;1.73;;;1.60;;
7338;SDS011;33747;49.524;8.390;2023-12-20T04:57:34;1.95;;;1.85;;
7338;SDS011;33747;49.524;8.390;2023-12-20T04:59:59;1.85;;;1.75;;
7338;SDS011;33747;49.524;8.390;2023-12-20T05:02:26;1.73;;;1.63;;
7338;SDS011;33747;49.524;8.390;2023-12-20T05:04:51;1.60;;;1.50;;
7338;SDS011;33747;49.524;8.390;2023-12-20T05:07:17;2.28;;;1.60;;
7338;SDS011;33747;49.524;8.390;2023-12-20T05:09:42;2.20;;;2.00;;
7338;SDS011;33747;49.524;8.390;2023-12-20T05:12:07;2.20;;;1.63;;
7338;SDS011;33747;49.524;8.390;2023-12-20T05:14:33;1.83;;;1.70;;
7338;SDS011;33747;49.524;8.390;2023-12-20T05:16:58;2.30;;;2.10;;
7338;SDS011;33747;49.524;8.390;2023-12-20T05:19:25;2.65;;;2.45;;
7338;SDS011;33747;49.524;8.390;2023-12-20T05:21:51;1.88;;;1.77;;
7338;SDS011;33747;49.524;8.390;2023-12-20T05:24:16;2.22;;;1.95;;
7338;SDS011;33747;49.524;8.390;2023-12-20T05:26:42;2.28;;;2.08;;
7338;SDS011;33747;49.524;8.390;2023-12-20T05:29:07;2.13;;;2.03;;
7338;SDS011;33747;49.524;8.390;2023-12-20T05:31:33;2.63;;;2.38;;
7338;SDS011;33747;49.524;8.390;2023-12-20T05:33:59;2.85;;;2.65;;
7338;SDS011;33747;49.524;8.390;2023-12-20T05:36:24;2.65;;;2.45;;
7338;SDS011;33747;49.524;8.390;2023-12-20T05:38:50;2.60;;;2.40;;
7338;SDS011;33747;49.524;8.390;2023-12-20T05:41:16;3.10;;;2.65;;
7338;SDS011;33747;49.524;8.390;2023-12-20T05:43:41;4.20;;;3.80;;
7338;SDS011;33747;49.524;8.390;2023-12-20T05:46:06;4.75;;;3.40;;
7338;SDS011;33747;49.524;8.390;2023-12-20T05:48:32;5.93;;;3.97;;
7338;SDS011;33747;49.524;8.390;2023-12-20T05:50:57;3.40;;;3.10;;
7338;SDS011;33747;49.524;8.390;2023-12-20T05:53:23;5.38;;;3.90;;
7338;SDS011;33747;49.524;8.390;2023-12-20T05:55:48;4.57;;;4.18;;
7338;SDS011;33747;49.524;8.390;2023-12-20T05:58:13;4.35;;;3.95;;
7338;SDS011;33747;49.524;8.390;2023-12-20T06:00:39;4.55;;;3.72;;
7338;SDS011;33747;49.524;8.390;2023-12-20T06:03:05;5.70;;;4.10;;
7338;SDS011;33747;49.524;8.390;2023-12-20T06:05:30;4.10;;;3.80;;
7338;SDS011;33747;49.524;8.390;2023-12-20T06:07:56;3.38;;;3.10;;
7338;SDS011;33747;49.524;8.390;2023-12-20T06:10:26;4.43;;;3.20;;
7338;SDS011;33747;49.524;8.390;2023-12-20T06:12:52;3.67;;;3.35;;
7338;SDS011;33747;49.524;8.390;2023-12-20T06:15:17;4.40;;;3.45;;
7338;SDS011;33747;49.524;8.390;2023-12-20T06:17:42;4.78;;;3.25;;
7338;SDS011;33747;49.524;8.390;2023-12-20T06:20:08;3.75;;;3.20;;
7338;SDS011;33747;49.524;8.390;2023-12-20T06:22:34;3.38;;;3.08;;
7338;SDS011;33747;49.524;8.390;2023-12-20T06:25:00;5.18;;;3.75;;
7338;SDS011;33747;49.524;8.390;2023-12-20T06:27:27;4.00;;;3.13;;
7338;SDS011;33747;49.524;8.390;2023-12-20T06:29:52;3.38;;;2.90;;
7338;SDS011;33747;49.524;8.390;2023-12-20T06:32:17;3.03;;;2.72;;
7338;SDS011;33747;49.524;8.390;2023-12-20T06:34:43;3.28;;;2.92;;
7338;SDS011;33747;49.524;8.390;2023-12-20T06:37:08;4.40;;;3.15;;
7338;SDS011;33747;49.524;8.390;2023-12-20T06:39:34;4.40;;;2.83;;
7338;SDS011;33747;49.524;8.390;2023-12-20T06:41:59;4.97;;;2.80;;
7338;SDS011;33747;49.524;8.390;2023-12-20T06:44:25;4.25;;;2.20;;
7338;SDS011;33747;49.524;8.390;2023-12-20T06:46:50;3.58;;;2.28;;
7338;SDS011;33747;49.524;8.390;2023-12-20T06:49:16;4.03;;;2.60;;
7338;SDS011;33747;49.524;8.390;2023-12-20T06:51:41;2.90;;;2.33;;
7338;SDS011;33747;49.524;8.390;2023-12-20T06:54:06;4.03;;;2.15;;
7338;SDS011;33747;49.524;8.390;2023-12-20T06:56:32;2.70;;;2.47;;
7338;SDS011;33747;49.524;8.390;2023-12-20T06:58:57;5.65;;;2.00;;
7338;SDS011;33747;49.524;8.390;2023-12-20T07:01:23;4.45;;;2.15;;
7338;SDS011;33747;49.524;8.390;2023-12-20T07:03:48;4.75;;;2.22;;
7338;SDS011;33747;49.524;8.390;2023-12-20T07:06:13;2.22;;;1.90;;
7338;SDS011;33747;49.524;8.390;2023-12-20T07:08:41;5.38;;;2.47;;
7338;SDS011;33747;49.524;8.390;2023-12-20T07:11:06;3.60;;;1.90;;
7338;SDS011;33747;49.524;8.390;2023-12-20T07:13:32;3.75;;;2.22;;
7338;SDS011;33747;49.524;8.390;2023-12-20T07:15:57;3.17;;;1.77;;
7338;SDS011;33747;49.524;8.390;2023-12-20T07:18:23;4.75;;;2.33;;
7338;SDS011;33747;49.524;8.390;2023-12-20T07:20:49;7.13;;;2.47;;
7338;SDS011;33747;49.524;8.390;2023-12-20T07:23:14;6.35;;;3.60;;
7338;SDS011;33747;49.524;8.390;2023-12-20T07:25:40;6.45;;;2.97;;
7338;SDS011;33747;49.524;8.390;2023-12-20T07:28:05;8.25;;;2.50;;
7338;SDS011;33747;49.524;8.390;2023-12-20T07:30:31;7.72;;;3.80;;
7338;SDS011;33747;49.524;8.390;2023-12-20T07:32:56;3.53;;;2.47;;
7338;SDS011;33747;49.524;8.390;2023-12-20T07:35:22;8.20;;;2.50;;
7338;SDS011;33747;49.524;8.390;2023-12-20T07:37:48;3.28;;;2.83;;
7338;SDS011;33747;49.524;8.390;2023-12-20T07:40:13;6.57;;;2.70;;
7338;SDS011;33747;49.524;8.390;2023-12-20T07:42:41;8.55;;;2.65;;
7338;SDS011;33747;49.524;8.390;2023-12-20T07:45:06;5.10;;;2.83;;
7338;SDS011;33747;49.524;8.390;2023-12-20T07:47:32;7.78;;;2.55;;
7338;SDS011;33747;49.524;8.390;2023-12-20T07:49:57;4.18;;;2.25;;
7338;SDS011;33747;49.524;8.390;2023-12-20T07:52:22;6.38;;;2.50;;
7338;SDS011;33747;49.524;8.390;2023-12-20T07:54:48;9.38;;;2.90;;
7338;SDS011;33747;49.524;8.390;2023-12-20T07:57:13;5.65;;;2.58;;
7338;SDS011;33747;49.524;8.390;2023-12-20T07:59:39;9.13;;;2.53;;
7338;SDS011;33747;49.524;8.390;2023-12-20T08:02:04;4.20;;;2.80;;
7338;SDS011;33747;49.524;8.390;2023-12-20T08:04:29;5.47;;;2.58;;
7338;SDS011;33747;49.524;8.390;2023-12-20T08:06:55;5.18;;;2.42;;
7338;SDS011;33747;49.524;8.390;2023-12-20T08:09:20;3.92;;;2.00;;
7338;SDS011;33747;49.524;8.390;2023-12-20T08:11:46;6.68;;;2.03;;
7338;SDS011;33747;49.524;8.390;2023-12-20T08:14:12;9.70;;;2.20;;
7338;SDS011;33747;49.524;8.390;2023-12-20T08:16:37;3.00;;;1.67;;
7338;SDS011;33747;49.524;8.390;2023-12-20T08:19:02;2.33;;;1.70;;
7338;SDS011;33747;49.524;8.390;2023-12-20T08:21:28;2.22;;;1.77;;
7338;SDS011;33747;49.524;8.390;2023-12-20T08:23:53;2.97;;;1.40;;
7338;SDS011;33747;49.524;8.390;2023-12-20T08:26:19;4.25;;;1.83;;
7338;SDS011;33747;49.524;8.390;2023-12-20T08:28:49;6.20;;;2.42;;
7338;SDS011;33747;49.524;8.390;2023-12-20T08:31:15;3.90;;;2.45;;
7338;SDS011;33747;49.524;8.390;2023-12-20T08:33:41;5.15;;;1.80;;
7338;SDS011;33747;49.524;8.390;2023-12-20T08:36:10;10.57;;;1.80;;
7338;SDS011;33747;49.524;8.390;2023-12-20T08:38:35;6.18;;;1.80;;
7338;SDS011;33747;49.524;8.390;2023-12-20T08:41:01;7.95;;;2.13;;
7338;SDS011;33747;49.524;8.390;2023-12-20T08:43:30;6.72;;;2.15;;
7338;SDS011;33747;49.524;8.390;2023-12-20T08:45:55;4.85;;;1.70;;
7338;SDS011;33747;49.524;8.390;2023-12-20T08:48:20;5.25;;;1.77;;
7338;SDS011;33747;49.524;8.390;2023-12-20T08:50:46;3.22;;;2.00;;
7338;SDS011;33747;49.524;8.390;2023-12-20T08:53:13;6.20;;;1.88;;
7338;SDS011;33747;49.524;8.390;2023-12-20T08:55:40;9.25;;;1.92;;
7338;SDS011;33747;49.524;8.390;2023-12-20T08:58:05;8.25;;;2.03;;
7338;SDS011;33747;49.524;8.390;2023-12-20T09:00:33;6.00;;;1.80;;
7338;SDS011;33747;49.524;8.390;2023-12-20T09:02:58;7.05;;;2.30;;
7338;SDS011;33747;49.524;8.390;2023-12-20T09:05:24;7.95;;;2.50;;
7338;SDS011;33747;49.524;8.390;2023-12-20T09:07:49;5.43;;;2.53;;
7338;SDS011;33747;49.524;8.390;2023-12-20T09:10:15;3.13;;;1.85;;
7338;SDS011;33747;49.524;8.390;2023-12-20T09:12:40;7.32;;;1.98;;
7338;SDS011;33747;49.524;8.390;2023-12-20T09:15:07;5.88;;;2.00;;
7338;SDS011;33747;49.524;8.390;2023-12-20T09:17:33;4.65;;;2.22;;
7338;SDS011;33747;49.524;8.390;2023-12-20T09:19:58;6.13;;;2.65;;
7338;SDS011;33747;49.524;8.390;2023-12-20T09:22:25;8.75;;;1.80;;
7338;SDS011;33747;49.524;8.390;2023-12-20T09:24:50;5.38;;;2.13;;
7338;SDS011;33747;49.524;8.390;2023-12-20T09:27:15;10.55;;;1.88;;
7338;SDS011;33747;49.524;8.390;2023-12-20T09:29:41;6.00;;;1.75;;
7338;SDS011;33747;49.524;8.390;2023-12-20T09:32:06;8.18;;;1.80;;
7338;SDS011;33747;49.524;8.390;2023-12-20T09:34:32;5.15;;;1.75;;
7338;SDS011;33747;49.524;8.390;2023-12-20T09:36:57;6.80;;;2.20;;
7338;SDS011;33747;49.524;8.390;2023-12-20T09:39:22;5.60;;;2.08;;
7338;SDS011;33747;49.524;8.390;2023-12-20T09:42:01;9.18;;;2.20;;
7338;SDS011;33747;49.524;8.390;2023-12-20T09:44:28;7.88;;;1.83;;
7338;SDS011;33747;49.524;8.390;2023-12-20T09:46:54;17.13;;;2.88;;
7338;SDS011;33747;49.524;8.390;2023-12-20T09:49:20;8.07;;;1.85;;
7338;SDS011;33747;49.524;8.390;2023-12-20T09:51:46;6.00;;;1.88;;
7338;SDS011;33747;49.524;8.390;2023-12-20T09:54:15;7.35;;;2.17;;
7338;SDS011;33747;49.524;8.390;2023-12-20T09:56:41;7.97;;;2.00;;
7338;SDS011;33747;49.524;8.390;2023-12-20T09:59:07;7.28;;;2.65;;
7338;SDS011;33747;49.524;8.390;2023-12-20T10:01:32;8.20;;;2.30;;
7338;SDS011;33747;49.524;8.390;2023-12-20T10:03:59;8.45;;;2.30;;
7338;SDS011;33747;49.524;8.390;2023-12-20T10:06:25;10.50;;;2.65;;
7338;SDS011;33747;49.524;8.390;2023-12-20T10:08:50;7.95;;;2.22;;
7338;SDS011;33747;49.524;8.390;2023-12-20T10:11:16;8.82;;;2.38;;
7338;SDS011;33747;49.524;8.390;2023-12-20T10:13:42;10.02;;;2.90;;
7338;SDS011;33747;49.524;8.390;2023-12-20T10:16:07;8.30;;;2.05;;
7338;SDS011;33747;49.524;8.390;2023-12-20T10:18:33;9.63;;;3.22;;
7338;SDS011;33747;49.524;8.390;2023-12-20T10:20:58;11.60;;;3.25;;
7338;SDS011;33747;49.524;8.390;2023-12-20T10:23:24;6.32;;;2.25;;
7338;SDS011;33747;49.524;8.390;2023-12-20T10:25:55;9.20;;;2.45;;
7338;SDS011;33747;49.524;8.390;2023-12-20T10:28:24;10.70;;;2.15;;
7338;SDS011;33747;49.524;8.390;2023-12-20T10:30:53;9.38;;;2.33;;
7338;SDS011;33747;49.524;8.390;2023-12-20T10:33:25;12.57;;;3.65;;
7338;SDS011;33747;49.524;8.390;2023-12-20T10:35:54;8.20;;;2.88;;
7338;SDS011;33747;49.524;8.390;2023-12-20T10:38:20;6.40;;;2.35;;
7338;SDS011;33747;49.524;8.390;2023-12-20T10:40:46;10.25;;;2.75;;
7338;SDS011;33747;49.524;8.390;2023-12-20T10:43:11;7.72;;;3.58;;
7338;SDS011;33747;49.524;8.390;2023-12-20T10:45:37;9.13;;;2.45;;
7338;SDS011;33747;49.524;8.390;2023-12-20T10:48:02;8.50;;;3.08;;
7338;SDS011;33747;49.524;8.390;2023-12-20T10:50:28;14.10;;;3.83;;
7338;SDS011;33747;49.524;8.390;2023-12-20T10:52:55;9.27;;;2.95;;
7338;SDS011;33747;49.524;8.390;2023-12-20T10:55:21;11.25;;;3.08;;
7338;SDS011;33747;49.524;8.390;2023-12-20T10:57:47;4.72;;;2.42;;
7338;SDS011;33747;49.524;8.390;2023-12-20T11:00:16;9.70;;;2.90;;
7338;SDS011;33747;49.524;8.390;2023-12-20T11:02:43;12.10;;;2.33;;
7338;SDS011;33747;49.524;8.390;2023-12-20T11:05:19;10.90;;;2.42;;
7338;SDS011;33747;49.524;8.390;2023-12-20T11:07:55;9.63;;;2.50;;
7338;SDS011;33747;49.524;8.390;2023-12-20T11:10:31;5.60;;;2.15;;
7338;SDS011;33747;49.524;8.390;2023-12-20T11:13:24;7.15;;;2.35;;
7338;SDS011;33747;49.524;8.390;2023-12-20T11:15:52;9.68;;;2.25;;
7338;SDS011;33747;49.524;8.390;2023-12-20T11:18:18;5.35;;;2.50;;
7338;SDS011;33747;49.524;8.390;2023-12-20T11:20:43;6.38;;;2.20;;
7338;SDS011;33747;49.524;8.390;2023-12-20T11:23:09;10.85;;;1.95;;
7338;SDS011;33747;49.524;8.390;2023-12-20T11:25:47;8.50;;;2.40;;
7338;SDS011;33747;49.524;8.390;2023-12-20T11:28:14;9.98;;;2.10;;
7338;SDS011;33747;49.524;8.390;2023-12-20T11:33:08;12.88;;;3.13;;
7338;SDS011;33747;49.524;8.390;2023-12-20T11:35:34;8.95;;;2.58;;
7338;SDS011;33747;49.524;8.390;2023-12-20T11:38:00;12.18;;;2.38;;
7338;SDS011;33747;49.524;8.390;2023-12-20T11:40:25;10.55;;;2.83;;
7338;SDS011;33747;49.524;8.390;2023-12-20T11:42:51;7.43;;;2.42;;
7338;SDS011;33747;49.524;8.390;2023-12-20T11:45:21;9.82;;;2.60;;
7338;SDS011;33747;49.524;8.390;2023-12-20T11:47:48;11.57;;;3.10;;
7338;SDS011;33747;49.524;8.390;2023-12-20T11:50:15;9.80;;;3.03;;
7338;SDS011;33747;49.524;8.390;2023-12-20T11:52:41;11.73;;;2.47;;
7338;SDS011;33747;49.524;8.390;2023-12-20T11:55:06;4.53;;;2.25;;
7338;SDS011;33747;49.524;8.390;2023-12-20T11:57:32;10.88;;;3.13;;
7338;SDS011;33747;49.524;8.390;2023-12-20T11:59:58;7.10;;;2.72;;
7338;SDS011;33747;49.524;8.390;2023-12-20T12:02:23;13.80;;;3.53;;
7338;SDS011;33747;49.524;8.390;2023-12-20T12:04:49;12.60;;;2.65;;
7338;SDS011;33747;49.524;8.390;2023-12-20T12:07:15;9.38;;;2.42;;
7338;SDS011;33747;49.524;8.390;2023-12-20T12:09:41;9.25;;;2.28;;
7338;SDS011;33747;49.524;8.390;2023-12-20T12:12:06;8.20;;;2.60;;
7338;SDS011;33747;49.524;8.390;2023-12-20T12:14:32;14.15;;;2.80;;
7338;SDS011;33747;49.524;8.390;2023-12-20T12:16:58;7.85;;;2.33;;
7338;SDS011;33747;49.524;8.390;2023-12-20T12:19:25;11.18;;;2.53;;
7338;SDS011;33747;49.524;8.390;2023-12-20T12:21:51;8.48;;;3.15;;
7338;SDS011;33747;49.524;8.390;2023-12-20T12:24:30;10.88;;;3.38;;
7338;SDS011;33747;49.524;8.390;2023-12-20T12:26:57;8.35;;;2.50;;
7338;SDS011;33747;49.524;8.390;2023-12-20T12:29:22;10.85;;;2.45;;
7338;SDS011;33747;49.524;8.390;2023-12-20T12:31:49;7.20;;;2.60;;
7338;SDS011;33747;49.524;8.390;2023-12-20T12:34:15;12.57;;;3.05;;
7338;SDS011;33747;49.524;8.390;2023-12-20T12:36:41;8.98;;;2.83;;
7338;SDS011;33747;49.524;8.390;2023-12-20T12:39:06;9.52;;;2.38;;
7338;SDS011;33747;49.524;8.390;2023-12-20T12:41:32;8.13;;;2.70;;
7338;SDS011;33747;49.524;8.390;2023-12-20T12:43:57;7.20;;;3.00;;
7338;SDS011;33747;49.524;8.390;2023-12-20T12:46:22;9.70;;;2.85;;
7338;SDS011;33747;49.524;8.390;2023-12-20T12:48:48;6.80;;;2.75;;
7338;SDS011;33747;49.524;8.390;2023-12-20T12:51:15;11.30;;;2.92;;
7338;SDS011;33747;49.524;8.390;2023-12-20T12:53:41;14.20;;;3.17;;
7338;SDS011;33747;49.524;8.390;2023-12-20T12:56:06;7.60;;;2.65;;
7338;SDS011;33747;49.524;8.390;2023-12-20T12:58:32;8.65;;;2.35;;
7338;SDS011;33747;49.524;8.390;2023-12-20T13:00:57;6.60;;;2.20;;
7338;SDS011;33747;49.524;8.390;2023-12-20T13:03:23;10.38;;;2.28;;
7338;SDS011;33747;49.524;8.390;2023-12-20T13:05:49;6.97;;;2.00;;
7338;SDS011;33747;49.524;8.390;2023-12-20T13:08:14;7.40;;;2.38;;
7338;SDS011;33747;49.524;8.390;2023-12-20T13:10:40;7.10;;;3.05;;
7338;SDS011;33747;49.524;8.390;2023-12-20T13:13:05;8.32;;;2.67;;
7338;SDS011;33747;49.524;8.390;2023-12-20T13:15:31;8.52;;;2.10;;
7338;SDS011;33747;49.524;8.390;2023-12-20T13:17:56;9.55;;;2.22;;
7338;SDS011;33747;49.524;8.390;2023-12-20T13:20:21;11.73;;;2.25;;
7338;SDS011;33747;49.524;8.390;2023-12-20T13:22:47;10.93;;;3.25;;
7338;SDS011;33747;49.524;8.390;2023-12-20T13:25:13;8.07;;;2.45;;
7338;SDS011;33747;49.524;8.390;2023-12-20T13:27:38;6.35;;;2.55;;
7338;SDS011;33747;49.524;8.390;2023-12-20T13:30:04;7.38;;;2.17;;
7338;SDS011;33747;49.524;8.390;2023-12-20T13:32:30;9.52;;;2.03;;
7338;SDS011;33747;49.524;8.390;2023-12-20T13:34:55;14.18;;;2.40;;
7338;SDS011;33747;49.524;8.390;2023-12-20T13:37:21;11.40;;;2.30;;
7338;SDS011;33747;49.524;8.390;2023-12-20T13:39:46;6.32;;;2.45;;
7338;SDS011;33747;49.524;8.390;2023-12-20T13:42:12;9.60;;;2.40;;
7338;SDS011;33747;49.524;8.390;2023-12-20T13:44:37;7.63;;;2.55;;
7338;SDS011;33747;49.524;8.390;2023-12-20T13:47:02;9.38;;;2.85;;
7338;SDS011;33747;49.524;8.390;2023-12-20T13:49:28;11.07;;;2.60;;
7338;SDS011;33747;49.524;8.390;2023-12-20T13:51:54;5.55;;;2.35;;
7338;SDS011;33747;49.524;8.390;2023-12-20T13:54:20;10.68;;;2.10;;
7338;SDS011;33747;49.524;8.390;2023-12-20T13:56:47;11.02;;;2.13;;
7338;SDS011;33747;49.524;8.390;2023-12-20T13:59:13;10.15;;;3.22;;
7338;SDS011;33747;49.524;8.390;2023-12-20T14:01:40;10.27;;;3.28;;
7338;SDS011;33747;49.524;8.390;2023-12-20T14:04:05;9.25;;;3.35;;
7338;SDS011;33747;49.524;8.390;2023-12-20T14:06:31;13.15;;;4.15;;
7338;SDS011;33747;49.524;8.390;2023-12-20T14:08:57;8.35;;;3.05;;
7338;SDS011;33747;49.524;8.390;2023-12-20T14:11:25;7.45;;;2.05;;
7338;SDS011;33747;49.524;8.390;2023-12-20T14:13:50;6.68;;;2.42;;
7338;SDS011;33747;49.524;8.390;2023-12-20T14:16:16;7.45;;;2.55;;
7338;SDS011;33747;49.524;8.390;2023-12-20T14:18:41;9.73;;;2.33;;
7338;SDS011;33747;49.524;8.390;2023-12-20T14:21:07;8.70;;;2.70;;
7338;SDS011;33747;49.524;8.390;2023-12-20T14:23:32;12.05;;;3.65;;
7338;SDS011;33747;49.524;8.390;2023-12-20T14:25:58;15.63;;;3.50;;
7338;SDS011;33747;49.524;8.390;2023-12-20T14:28:24;9.68;;;3.17;;
7338;SDS011;33747;49.524;8.390;2023-12-20T14:30:50;11.50;;;3.00;;
7338;SDS011;33747;49.524;8.390;2023-12-20T14:33:15;10.93;;;2.58;;
7338;SDS011;33747;49.524;8.390;2023-12-20T14:35:41;8.40;;;3.63;;
7338;SDS011;33747;49.524;8.390;2023-12-20T14:38:07;9.93;;;3.28;;
7338;SDS011;33747;49.524;8.390;2023-12-20T14:40:33;7.68;;;3.53;;
7338;SDS011;33747;49.524;8.390;2023-12-20T14:42:58;11.25;;;3.53;;
7338;SDS011;33747;49.524;8.390;2023-12-20T14:45:25;9.65;;;3.08;;
7338;SDS011;33747;49.524;8.390;2023-12-20T14:47:50;11.45;;;2.65;;
7338;SDS011;33747;49.524;8.390;2023-12-20T14:50:15;5.25;;;2.42;;
7338;SDS011;33747;49.524;8.390;2023-12-20T14:52:44;9.13;;;2.40;;
7338;SDS011;33747;49.524;8.390;2023-12-20T14:55:10;12.13;;;2.65;;